Time;durP1;ratioP1;P1;durP2;ratioP2;P2;SDS_P1;SDS_P2;PMS_P1;PMS_P2;Temp;Humidity;BMP_temperature;BMP_pressure;BME280_temperature;BME280_humidity;BME280_pressure;Samples;Min_cycle;Max_cycle;Signal;HPM_P1;HPM_P2
2022/12/19 00:01:44;;;;;;;2.28;2.08;;;17.10;54.70;;;;;;5050195;28;20045;-54
2022/12/19 00:04:14;;;;;;;3.20;1.90;;;17.20;54.70;;;;;;5049636;28;20041;-54
2022/12/19 00:06:41;;;;;;;3.55;2.22;;;17.10;54.80;;;;;;5035892;28;20041;-53
2022/12/19 00:09:09;;;;;;;2.67;2.45;;;17.10;54.90;;;;;;5043236;28;20033;-51
2022/12/19 00:11:37;;;;;;;2.40;2.20;;;17.00;54.90;;;;;;5043014;28;20114;-54
2022/12/19 00:14:04;;;;;;;2.35;1.83;;;17.00;54.90;;;;;;5040807;28;20064;-55
2022/12/19 00:16:31;;;;;;;3.05;1.92;;;17.00;55.00;;;;;;5053800;28;20072;-54
2022/12/19 00:19:01;;;;;;;2.63;2.42;;;17.00;55.10;;;;;;5050071;28;20045;-55
2022/12/19 00:21:30;;;;;;;2.83;2.42;;;16.90;55.10;;;;;;5050127;28;20037;-52
2022/12/19 00:23:58;;;;;;;3.47;3.17;;;16.90;55.20;;;;;;5039451;28;20049;-55
2022/12/19 00:26:27;;;;;;;3.38;2.45;;;16.80;55.20;;;;;;5050090;28;20056;-54
2022/12/19 00:28:57;;;;;;;3.95;2.70;;;16.90;55.30;;;;;;5048400;28;20075;-54
2022/12/19 00:31:25;;;;;;;8.57;6.32;;;16.80;55.30;;;;;;5049804;28;20045;-52
2022/12/19 00:33:52;;;;;;;4.78;4.22;;;16.80;55.30;;;;;;5049514;28;20068;-50
2022/12/19 00:36:23;;;;;;;4.97;4.13;;;16.70;55.20;;;;;;5048215;28;20461;-49
2022/12/19 00:38:51;;;;;;;3.03;2.55;;;16.70;55.40;;;;;;5048124;28;20049;-53
2022/12/19 00:41:19;;;;;;;3.17;2.65;;;16.70;55.30;;;;;;5049363;28;20136;-51
2022/12/19 00:43:50;;;;;;;3.03;2.75;;;16.70;55.40;;;;;;5049135;28;20047;-53
2022/12/19 00:46:17;;;;;;;2.63;2.38;;;16.60;55.40;;;;;;5064404;28;20536;-53
2022/12/19 00:48:44;;;;;;;3.40;2.97;;;16.60;55.40;;;;;;5047461;28;20072;-50
2022/12/19 00:51:14;;;;;;;2.53;2.20;;;16.60;55.50;;;;;;5049179;28;20041;-54
2022/12/19 00:53:44;;;;;;;2.58;2.20;;;16.60;55.60;;;;;;5049225;28;20056;-54
2022/12/19 00:56:13;;;;;;;3.08;2.78;;;16.50;55.60;;;;;;5048863;28;20121;-50
2022/12/19 00:58:41;;;;;;;3.47;2.15;;;16.50;56.20;;;;;;5047385;28;20072;-52
2022/12/19 01:01:10;;;;;;;2.05;1.83;;;16.50;55.70;;;;;;5049294;28;20041;-53
2022/12/19 01:03:37;;;;;;;3.38;2.50;;;16.40;55.70;;;;;;5048415;28;20638;-56
2022/12/19 01:06:04;;;;;;;2.20;1.95;;;16.50;55.80;;;;;;5049133;28;20048;-53
2022/12/19 01:08:32;;;;;;;2.35;1.58;;;16.40;55.70;;;;;;5048789;28;20124;-53
2022/12/19 01:11:00;;;;;;;2.92;1.90;;;16.40;55.70;;;;;;5048608;28;20048;-53
2022/12/19 01:13:29;;;;;;;1.63;1.45;;;16.40;55.70;;;;;;5048705;28;20052;-53
2022/12/19 01:15:56;;;;;;;2.13;1.27;;;16.40;55.80;;;;;;5047671;28;20126;-53
2022/12/19 01:18:23;;;;;;;5.38;2.10;;;16.30;55.80;;;;;;5046590;28;20045;-53
2022/12/19 01:20:50;;;;;;;3.33;2.35;;;16.30;55.80;;;;;;5048488;28;20575;-53
2022/12/19 01:23:17;;;;;;;1.70;1.40;;;16.30;55.80;;;;;;5047120;28;20037;-51
2022/12/19 01:25:52;;;;;;;4.25;1.85;;;16.30;55.90;;;;;;5047411;28;20123;-52
2022/12/19 01:28:20;;;;;;;1.73;1.50;;;16.30;55.90;;;;;;5047051;28;20041;-50
2022/12/19 01:30:48;;;;;;;1.50;1.40;;;16.20;55.90;;;;;;5047363;28;20063;-51
2022/12/19 01:33:17;;;;;;;2.35;1.70;;;16.20;55.90;;;;;;5048328;28;20113;-49
2022/12/19 01:35:45;;;;;;;2.60;1.40;;;16.20;56.00;;;;;;5048386;28;20045;-53
2022/12/19 01:38:14;;;;;;;1.65;1.55;;;16.20;56.00;;;;;;5048184;28;20049;-50
2022/12/19 01:40:41;;;;;;;2.45;1.25;;;16.10;56.00;;;;;;5047861;28;20033;-51
2022/12/19 01:43:13;;;;;;;1.58;1.48;;;16.10;55.90;;;;;;5040617;28;20041;-50
2022/12/19 01:45:43;;;;;;;3.53;0.93;;;16.10;56.00;;;;;;5027850;28;20069;-52
2022/12/19 01:48:20;;;;;;;1.58;0.73;;;16.10;56.00;;;;;;5047494;28;20068;-53
2022/12/19 01:50:56;;;;;;;1.65;1.35;;;16.10;56.10;;;;;;5067331;28;20044;-51
2022/12/19 01:53:25;;;;;;;1.60;1.50;;;16.10;56.10;;;;;;5068055;28;20440;-50
2022/12/19 01:55:53;;;;;;;2.72;2.42;;;16.10;56.00;;;;;;5067987;28;20378;-51
2022/12/19 01:58:21;;;;;;;2.22;1.02;;;16.00;56.00;;;;;;5065611;28;20123;-50
2022/12/19 02:00:49;;;;;;;1.98;1.00;;;16.10;56.00;;;;;;5047548;28;20624;-52
2022/12/19 02:03:22;;;;;;;1.58;1.15;;;16.00;56.00;;;;;;5047935;28;20124;-50
2022/12/19 02:05:52;;;;;;;1.65;1.08;;;16.00;56.00;;;;;;5046522;28;20080;-49
2022/12/19 02:08:19;;;;;;;2.45;1.27;;;16.00;56.10;;;;;;5046359;28;20144;-52
2022/12/19 02:10:46;;;;;;;3.03;1.55;;;16.00;56.00;;;;;;5046216;28;20086;-54
2022/12/19 02:13:15;;;;;;;1.83;1.60;;;16.00;56.00;;;;;;5048349;28;20421;-51
2022/12/19 02:15:50;;;;;;;2.55;1.17;;;16.00;56.00;;;;;;5046984;28;20593;-52
2022/12/19 02:18:32;;;;;;;1.58;1.13;;;16.00;56.10;;;;;;5046702;28;20045;-52
2022/12/19 02:21:15;;;;;;;1.20;1.10;;;16.00;56.00;;;;;;5047842;28;20048;-53
2022/12/19 02:24:32;;;;;;;2.25;1.05;;;16.00;56.10;;;;;;5046162;28;20040;-53
2022/12/19 02:27:20;;;;;;;0.95;0.70;;;16.00;56.00;;;;;;5045761;28;20048;-52
2022/12/19 02:30:07;;;;;;;1.33;0.85;;;15.90;56.00;;;;;;5045686;28;20051;-52
2022/12/19 02:32:49;;;;;;;3.38;1.20;;;16.00;56.10;;;;;;5045992;28;20142;-51
2022/12/19 02:35:25;;;;;;;1.30;0.93;;;15.90;56.10;;;;;;5045992;28;20233;-53
2022/12/19 02:37:58;;;;;;;0.82;0.47;;;15.90;56.10;;;;;;5046169;28;20565;-53
2022/12/19 02:40:31;;;;;;;0.82;0.82;;;15.90;56.60;;;;;;5045754;28;20037;-49
2022/12/19 02:43:01;;;;;;;0.98;0.95;;;15.90;56.10;;;;;;5046957;28;20049;-52
2022/12/19 02:45:33;;;;;;;1.23;0.90;;;15.90;56.20;;;;;;5046820;28;20041;-53
2022/12/19 02:48:04;;;;;;;0.73;0.73;;;15.90;56.20;;;;;;5046047;28;20073;-52
2022/12/19 02:50:39;;;;;;;1.77;0.93;;;15.90;56.20;;;;;;5047093;28;20041;-49
2022/12/19 02:53:08;;;;;;;1.85;0.88;;;15.90;56.20;;;;;;5045876;28;20049;-52
2022/12/19 02:55:42;;;;;;;1.17;0.40;;;15.90;56.10;;;;;;5046961;28;20489;-50
2022/12/19 02:58:26;;;;;;;2.08;0.85;;;15.90;56.10;;;;;;5045417;28;20044;-52
2022/12/19 03:00:59;;;;;;;0.68;0.68;;;15.90;56.20;;;;;;5026084;28;20457;-52
2022/12/19 03:03:36;;;;;;;1.35;0.90;;;15.90;56.20;;;;;;5029385;28;20473;-51
2022/12/19 03:06:12;;;;;;;0.90;0.77;;;15.90;56.20;;;;;;5030559;28;20049;-50
2022/12/19 03:08:48;;;;;;;1.52;0.77;;;15.90;56.20;;;;;;5030095;28;20045;-53
2022/12/19 03:11:16;;;;;;;1.13;0.60;;;15.90;56.20;;;;;;5029911;28;20033;-50
2022/12/19 03:13:53;;;;;;;1.30;0.98;;;15.90;56.20;;;;;;5030393;28;20095;-51
2022/12/19 03:16:20;;;;;;;0.75;0.75;;;15.90;56.20;;;;;;5029700;28;20042;-50
2022/12/19 03:18:49;;;;;;;0.82;0.50;;;15.80;56.10;;;;;;5036489;28;20041;-53
2022/12/19 03:21:21;;;;;;;0.90;0.77;;;15.90;56.20;;;;;;5036416;28;20333;-54
2022/12/19 03:23:50;;;;;;;1.02;0.82;;;15.90;56.30;;;;;;5038919;28;20053;-50
2022/12/19 03:26:20;;;;;;;0.90;0.68;;;15.90;56.40;;;;;;5050666;28;20127;-51
2022/12/19 03:28:51;;;;;;;2.42;1.23;;;15.90;56.00;;;;;;5050052;28;20114;-53
2022/12/19 03:31:21;;;;;;;2.47;0.57;;;15.90;55.70;;;;;;5050787;28;20049;-53
2022/12/19 03:33:55;;;;;;;3.88;1.50;;;15.80;55.50;;;;;;5050621;28;20128;-52
2022/12/19 03:36:28;;;;;;;6.38;0.80;;;15.90;55.30;;;;;;5050403;28;20090;-51
2022/12/19 03:38:57;;;;;;;1.20;0.93;;;15.90;55.30;;;;;;5050490;28;20513;-49
2022/12/19 03:44:08;;;;;;;1.38;0.75;;;15.90;55.20;;;;;;5049923;28;20140;-51
2022/12/19 03:46:39;;;;;;;1.33;0.70;;;15.90;55.20;;;;;;5050299;28;20125;-58
2022/12/19 03:49:08;;;;;;;3.20;0.85;;;15.90;55.10;;;;;;5050389;28;20095;-53
2022/12/19 03:51:41;;;;;;;2.17;0.70;;;15.90;55.10;;;;;;5050327;28;20033;-52
2022/12/19 03:54:15;;;;;;;1.10;0.73;;;15.90;55.00;;;;;;5050103;28;20239;-50
2022/12/19 03:56:49;;;;;;;1.73;0.95;;;15.90;54.90;;;;;;5048450;28;20115;-51
2022/12/19 03:59:20;;;;;;;2.88;0.98;;;15.90;55.00;;;;;;5049858;28;20456;-50
2022/12/19 04:01:49;;;;;;;0.70;0.68;;;15.90;54.90;;;;;;5050332;28;20581;-51
2022/12/19 04:04:18;;;;;;;1.20;0.80;;;15.90;54.90;;;;;;5050159;28;20552;-54
2022/12/19 04:06:46;;;;;;;2.05;0.73;;;15.90;54.90;;;;;;5050088;28;20452;-53
2022/12/19 04:09:14;;;;;;;1.77;0.70;;;15.90;54.80;;;;;;5050289;28;20095;-53
2022/12/19 04:11:47;;;;;;;0.68;0.68;;;15.90;54.80;;;;;;5049926;28;20056;-52
2022/12/19 04:14:20;;;;;;;0.80;0.80;;;16.00;54.80;;;;;;5049271;28;20132;-54
2022/12/19 04:16:53;;;;;;;1.55;1.45;;;16.00;54.80;;;;;;5049795;28;20553;-52
2022/12/19 04:19:28;;;;;;;2.72;0.60;;;15.90;54.70;;;;;;5049597;28;20045;-50
2022/12/19 04:22:01;;;;;;;2.47;0.52;;;16.00;54.80;;;;;;5049804;28;20049;-50
2022/12/19 04:24:35;;;;;;;0.70;0.40;;;16.00;54.90;;;;;;5049368;28;20049;-52
2022/12/19 04:27:05;;;;;;;3.83;0.88;;;16.00;54.90;;;;;;5049332;28;20482;-49
2022/12/19 04:29:36;;;;;;;0.65;0.35;;;16.00;54.80;;;;;;5049422;28;20041;-51
2022/12/19 04:32:04;;;;;;;0.88;0.80;;;16.00;54.90;;;;;;5049682;28;20056;-50
2022/12/19 04:34:33;;;;;;;2.45;0.60;;;16.00;54.80;;;;;;5049076;28;20508;-50
2022/12/19 04:37:02;;;;;;;1.85;0.40;;;16.00;54.80;;;;;;5049393;28;20041;-51
2022/12/19 04:39:29;;;;;;;1.13;0.68;;;16.00;54.90;;;;;;5049137;28;20136;-53
2022/12/19 04:41:56;;;;;;;1.08;0.85;;;16.00;54.90;;;;;;5049417;28;20128;-48
2022/12/19 04:44:23;;;;;;;0.77;0.57;;;16.00;54.80;;;;;;5049141;28;20048;-50
2022/12/19 04:46:50;;;;;;;0.70;0.63;;;16.00;54.80;;;;;;5049479;28;20064;-50
2022/12/19 04:49:18;;;;;;;0.57;0.57;;;16.00;54.80;;;;;;5049578;28;20517;-53
2022/12/19 04:51:46;;;;;;;0.82;0.40;;;16.00;54.80;;;;;;5049328;28;20103;-52
2022/12/19 04:54:13;;;;;;;1.60;0.50;;;16.00;54.90;;;;;;5048654;28;20094;-50
2022/12/19 04:56:40;;;;;;;0.85;0.50;;;16.10;54.90;;;;;;5045077;28;20136;-50
2022/12/19 04:59:07;;;;;;;0.43;0.43;;;16.00;54.80;;;;;;5036319;28;20044;-50
2022/12/19 05:01:34;;;;;;;1.27;0.90;;;16.00;54.90;;;;;;5048987;28;20041;-52
2022/12/19 05:04:01;;;;;;;0.90;0.70;;;16.10;55.60;;;;;;5048934;28;20052;-53
2022/12/19 05:06:28;;;;;;;2.58;0.80;;;16.10;54.90;;;;;;5048904;28;20048;-52
2022/12/19 05:08:57;;;;;;;0.43;0.43;;;16.10;54.90;;;;;;5048314;28;20505;-53
2022/12/19 05:11:24;;;;;;;4.38;0.57;;;16.10;55.00;;;;;;5048873;28;20121;-53
2022/12/19 05:13:51;;;;;;;3.47;0.60;;;16.10;54.90;;;;;;5048752;28;20040;-51
2022/12/19 05:16:18;;;;;;;1.25;0.40;;;16.10;54.90;;;;;;5048530;28;20052;-52
2022/12/19 05:18:45;;;;;;;1.00;0.30;;;16.10;54.90;;;;;;5048561;28;20041;-52
2022/12/19 05:21:13;;;;;;;0.77;0.20;;;16.10;54.90;;;;;;5048587;28;20049;-52
2022/12/19 05:23:40;;;;;;;0.77;0.40;;;16.10;54.90;;;;;;5041418;28;20470;-53
2022/12/19 05:26:08;;;;;;;0.30;0.28;;;16.10;54.80;;;;;;5028028;28;20177;-50
2022/12/19 05:28:35;;;;;;;1.77;0.30;;;16.10;54.80;;;;;;5030028;28;20398;-52
2022/12/19 05:31:04;;;;;;;1.08;0.60;;;16.10;54.80;;;;;;5048226;28;20052;-50
2022/12/19 05:33:32;;;;;;;0.93;0.43;;;16.10;55.40;;;;;;5050937;28;20040;-50
2022/12/19 05:35:59;;;;;;;0.95;0.57;;;16.10;54.80;;;;;;5048189;28;20145;-53
2022/12/19 05:38:27;;;;;;;1.33;0.93;;;16.10;54.80;;;;;;5047557;28;20047;-52
2022/12/19 05:40:54;;;;;;;1.90;0.43;;;16.10;54.80;;;;;;5048281;28;20553;-50
2022/12/19 05:43:23;;;;;;;1.45;0.35;;;16.10;54.90;;;;;;5057553;28;20625;-51
2022/12/19 05:45:50;;;;;;;0.60;0.40;;;16.20;54.90;;;;;;5047586;28;20053;-49
2022/12/19 05:48:17;;;;;;;1.55;0.40;;;16.10;54.80;;;;;;5047794;28;20425;-51
2022/12/19 05:50:48;;;;;;;0.77;0.65;;;16.20;54.90;;;;;;5047975;28;20416;-50
2022/12/19 05:53:15;;;;;;;1.25;0.57;;;16.20;54.90;;;;;;5047655;28;20718;-50
2022/12/19 05:55:42;;;;;;;1.25;0.50;;;16.20;54.90;;;;;;5047964;28;20053;-51
2022/12/19 05:58:09;;;;;;;0.60;0.60;;;16.20;54.90;;;;;;5047870;28;20115;-50
2022/12/19 06:00:38;;;;;;;1.10;0.65;;;16.20;54.90;;;;;;5048235;28;20045;-50
2022/12/19 06:03:05;;;;;;;0.50;0.40;;;16.20;54.90;;;;;;5047143;28;20041;-54
2022/12/19 06:05:32;;;;;;;5.18;0.65;;;16.20;54.90;;;;;;5045629;28;20040;-53
2022/12/19 06:07:59;;;;;;;0.40;0.30;;;16.20;54.90;;;;;;5047334;28;20129;-51
2022/12/19 06:10:26;;;;;;;1.05;0.57;;;16.20;54.90;;;;;;5047555;28;20040;-52
2022/12/19 06:12:53;;;;;;;1.30;0.32;;;16.20;54.90;;;;;;5046157;28;20045;-51
2022/12/19 06:15:20;;;;;;;0.50;0.38;;;16.20;54.90;;;;;;5047609;28;20131;-50
2022/12/19 06:17:52;;;;;;;0.50;0.35;;;16.20;54.90;;;;;;5047733;28;20069;-49
2022/12/19 06:20:19;;;;;;;0.95;0.30;;;16.20;54.90;;;;;;5046108;28;20703;-49
2022/12/19 06:22:46;;;;;;;1.10;0.20;;;16.20;54.90;;;;;;5045048;28;20036;-55
2022/12/19 06:25:13;;;;;;;3.15;0.60;;;16.20;54.50;;;;;;5047056;28;20122;-53
2022/12/19 06:27:40;;;;;;;1.25;0.60;;;16.20;54.40;;;;;;5047213;28;20037;-50
2022/12/19 06:30:08;;;;;;;0.93;0.82;;;16.20;54.40;;;;;;5047087;28;20041;-51
2022/12/19 06:32:35;;;;;;;0.50;0.50;;;16.20;54.50;;;;;;5044066;28;20829;-54
2022/12/19 06:35:04;;;;;;;0.57;0.38;;;16.20;54.40;;;;;;5047607;28;20068;-63
2022/12/19 06:37:31;;;;;;;0.60;0.30;;;16.20;54.50;;;;;;5046609;28;20050;-65
2022/12/19 06:39:58;;;;;;;2.47;1.00;;;16.20;54.70;;;;;;5047077;28;20094;-50
2022/12/19 06:42:24;;;;;;;0.65;0.22;;;16.20;54.90;;;;;;5046500;28;20053;-49
2022/12/19 06:44:53;;;;;;;0.25;0.20;;;16.30;55.40;;;;;;5046899;28;20037;-53
2022/12/19 06:47:21;;;;;;;0.30;0.22;;;16.30;55.70;;;;;;5047062;28;20045;-50
2022/12/19 06:49:49;;;;;;;0.47;0.47;;;16.40;55.90;;;;;;5047186;28;20055;-51
2022/12/19 06:52:18;;;;;;;1.63;0.32;;;16.50;55.90;;;;;;5046650;28;20046;-52
2022/12/19 06:54:45;;;;;;;0.68;0.30;;;16.50;55.70;;;;;;5057921;28;20045;-54
2022/12/19 06:57:12;;;;;;;0.38;0.30;;;16.60;55.70;;;;;;5046382;28;20131;-51
2022/12/19 06:59:39;;;;;;;0.65;0.30;;;16.60;55.50;;;;;;5039799;28;20076;-62
2022/12/19 07:02:21;;;;;;;2.95;0.40;;;16.70;55.50;;;;;;5044419;28;20051;-62
2022/12/19 07:04:52;;;;;;;1.40;0.22;;;16.70;55.70;;;;;;5046723;28;20056;-62
2022/12/19 07:07:20;;;;;;;1.60;0.60;;;16.70;55.60;;;;;;5046998;28;20052;-60
2022/12/19 07:09:48;;;;;;;0.20;0.20;;;16.80;55.60;;;;;;5046912;28;20112;-59
2022/12/19 07:12:15;;;;;;;6.15;0.20;;;16.80;55.60;;;;;;5046702;28;20044;-62
2022/12/19 07:14:42;;;;;;;1.80;1.27;;;16.80;55.70;;;;;;5046596;28;20531;-61
2022/12/19 07:17:11;;;;;;;2.58;1.33;;;16.90;55.80;;;;;;5046948;28;20077;-61
2022/12/19 07:19:39;;;;;;;2.13;0.50;;;16.90;55.70;;;;;;5058688;28;20049;-62
2022/12/19 07:22:07;;;;;;;0.68;0.30;;;17.00;55.80;;;;;;5042093;28;20398;-62
2022/12/19 07:24:36;;;;;;;0.60;0.40;;;17.00;55.70;;;;;;5046559;28;20033;-62
2022/12/19 07:27:04;;;;;;;0.30;0.30;;;17.00;55.70;;;;;;5046531;28;20049;-64
2022/12/19 07:29:31;;;;;;;1.83;0.20;;;17.10;55.60;;;;;;5046443;28;20036;-58
2022/12/19 07:31:58;;;;;;;0.90;0.28;;;17.10;55.90;;;;;;5046647;28;20668;-60
2022/12/19 07:34:25;;;;;;;1.23;0.40;;;17.30;56.40;;;;;;5046456;28;20581;-59
2022/12/19 07:36:52;;;;;;;1.17;0.30;;;17.50;56.60;;;;;;5046674;28;20052;-61
2022/12/19 07:39:20;;;;;;;0.22;0.20;;;17.80;56.60;;;;;;5044756;28;20807;-54
2022/12/19 07:41:49;;;;;;;3.83;1.00;;;18.10;56.30;;;;;;5046370;28;20113;-50
2022/12/19 07:44:29;;;;;;;0.50;0.50;;;18.30;55.90;;;;;;5046251;28;20444;-62
2022/12/19 07:46:57;;;;;;;0.25;0.20;;;18.50;56.20;;;;;;5042899;28;20049;-61
2022/12/19 07:49:24;;;;;;;1.38;0.22;;;18.70;55.40;;;;;;5035459;28;20426;-65
2022/12/19 07:51:51;;;;;;;2.28;0.60;;;18.90;55.10;;;;;;5050344;28;20103;-67
2022/12/19 07:54:18;;;;;;;0.60;0.28;;;19.10;54.70;;;;;;5047910;28;20106;-67
2022/12/19 07:56:46;;;;;;;0.40;0.28;;;19.20;54.30;;;;;;5050221;28;20076;-62
2022/12/19 07:59:14;;;;;;;0.52;0.45;;;19.40;54.00;;;;;;5049579;28;20059;-63
2022/12/19 08:01:41;;;;;;;0.30;0.30;;;19.50;53.60;;;;;;5067460;28;20481;-63
2022/12/19 08:04:08;;;;;;;0.20;0.20;;;19.70;53.50;;;;;;5067963;28;20128;-62
2022/12/19 08:06:35;;;;;;;0.95;0.43;;;19.80;53.20;;;;;;5049910;28;20577;-62
2022/12/19 08:09:02;;;;;;;0.60;0.60;;;19.90;53.00;;;;;;5048749;28;20136;-62
2022/12/19 08:11:29;;;;;;;0.60;0.20;;;20.10;52.80;;;;;;5034231;28;20048;-63
2022/12/19 08:13:57;;;;;;;0.20;0.10;;;20.20;52.60;;;;;;5049311;28;20227;-52
2022/12/19 08:16:27;;;;;;;1.40;0.10;;;20.30;52.40;;;;;;5049612;28;20049;-65
2022/12/19 08:18:54;;;;;;;0.22;0.10;;;20.50;52.10;;;;;;5049200;28;20049;-63
2022/12/19 08:21:21;;;;;;;0.30;0.20;;;20.60;52.00;;;;;;5050625;28;20060;-70
2022/12/19 08:23:49;;;;;;;0.20;0.15;;;20.70;51.70;;;;;;5047510;28;20532;-67
2022/12/19 08:26:23;;;;;;;0.80;0.60;;;20.80;51.40;;;;;;5049149;28;20140;-55
2022/12/19 08:28:51;;;;;;;0.65;0.65;;;20.90;51.20;;;;;;5049066;28;20065;-48
2022/12/19 08:31:20;;;;;;;1.42;0.40;;;21.00;50.90;;;;;;5047148;28;20063;-53
2022/12/19 08:33:48;;;;;;;2.75;0.40;;;21.10;50.90;;;;;;5040672;28;20132;-53
2022/12/19 08:36:18;;;;;;;3.03;0.10;;;21.10;50.60;;;;;;5049506;28;20497;-54
2022/12/19 08:38:46;;;;;;;0.85;0.20;;;21.20;50.50;;;;;;5048941;28;20041;-56
2022/12/19 08:41:13;;;;;;;1.65;0.40;;;21.30;50.50;;;;;;5048886;28;20053;-53
2022/12/19 08:43:40;;;;;;;0.22;0.13;;;21.30;50.50;;;;;;5049208;28;20041;-49
2022/12/19 08:46:08;;;;;;;1.27;0.20;;;21.40;50.70;;;;;;5049233;28;20098;-53
2022/12/19 08:48:36;;;;;;;1.13;0.30;;;21.50;50.80;;;;;;5046428;28;20472;-52
2022/12/19 08:51:07;;;;;;;1.45;0.30;;;21.50;50.70;;;;;;5042355;28;20127;-54
2022/12/19 08:53:36;;;;;;;1.60;0.17;;;21.60;50.70;;;;;;5032384;28;20060;-53
2022/12/19 08:56:06;;;;;;;0.20;0.10;;;21.70;50.70;;;;;;5048015;28;20037;-54
2022/12/19 08:58:33;;;;;;;1.27;0.15;;;21.80;50.60;;;;;;5045448;28;20052;-54
2022/12/19 09:01:03;;;;;;;5.90;0.30;;;21.80;50.60;;;;;;5029919;28;20121;-50
2022/12/19 09:03:31;;;;;;;1.27;0.28;;;22.00;50.50;;;;;;5044726;28;20141;-48
2022/12/19 09:05:59;;;;;;;0.10;0.10;;;22.00;50.40;;;;;;5045726;28;20045;-49
2022/12/19 09:08:29;;;;;;;2.55;0.30;;;22.10;50.30;;;;;;5035856;28;20045;-48
2022/12/19 09:10:59;;;;;;;0.88;0.20;;;22.20;50.30;;;;;;5036004;28;20135;-50
2022/12/19 09:13:27;;;;;;;1.20;0.10;;;22.30;50.30;;;;;;5048427;28;20076;-51
2022/12/19 09:16:01;;;;;;;3.05;0.10;;;22.30;50.10;;;;;;5039201;28;20045;-51
2022/12/19 09:18:28;;;;;;;0.30;0.10;;;22.40;50.00;;;;;;5039949;28;20127;-50
2022/12/19 09:20:56;;;;;;;0.20;0.20;;;22.50;49.90;;;;;;5047965;28;20048;-52
2022/12/19 09:23:25;;;;;;;2.63;0.10;;;22.60;49.80;;;;;;5037352;28;20128;-62
2022/12/19 09:25:54;;;;;;;1.00;0.20;;;22.70;49.70;;;;;;5048543;28;20312;-61
2022/12/19 09:28:22;;;;;;;0.40;0.30;;;22.70;49.50;;;;;;5046333;28;20658;-61
2022/12/19 09:30:55;;;;;;;0.20;0.10;;;22.80;49.40;;;;;;5047310;28;20041;-52
2022/12/19 09:33:23;;;;;;;1.25;1.15;;;22.90;49.00;;;;;;5047920;28;20071;-50
2022/12/19 09:35:51;;;;;;;1.80;0.80;;;22.90;48.50;;;;;;5048520;28;20525;-52
2022/12/19 09:38:19;;;;;;;0.55;0.20;;;22.90;48.20;;;;;;5048089;28;20048;-52
2022/12/19 09:41:02;;;;;;;0.20;0.20;;;22.90;48.00;;;;;;5048234;28;20513;-49
2022/12/19 09:43:42;;;;;;;2.97;0.60;;;22.90;47.80;;;;;;5047820;28;20051;-52
2022/12/19 09:46:17;;;;;;;0.22;0.20;;;22.90;47.70;;;;;;5030304;28;20041;-54
2022/12/19 09:48:47;;;;;;;1.38;0.30;;;22.90;47.70;;;;;;5047926;28;20064;-52
2022/12/19 09:51:23;;;;;;;1.23;0.10;;;22.90;47.50;;;;;;5047095;28;20111;-50
2022/12/19 09:54:01;;;;;;;0.50;0.20;;;22.80;47.50;;;;;;5039549;28;20052;-54
2022/12/19 09:56:34;;;;;;;1.65;0.10;;;22.90;47.50;;;;;;5034214;28;20072;-52
2022/12/19 09:59:04;;;;;;;2.05;0.57;;;22.80;47.50;;;;;;5040335;28;20049;-52
2022/12/19 10:01:49;;;;;;;0.30;0.30;;;22.80;47.40;;;;;;5031333;28;20041;-51
2022/12/19 10:04:18;;;;;;;2.05;0.22;;;22.80;47.40;;;;;;5038968;28;20094;-53
2022/12/19 10:06:45;;;;;;;0.40;0.17;;;22.80;47.30;;;;;;5047903;28;20052;-51
2022/12/19 10:09:14;;;;;;;0.93;0.30;;;22.90;47.30;;;;;;5046401;28;20077;-52
2022/12/19 10:11:54;;;;;;;0.73;0.20;;;22.80;47.20;;;;;;5047292;28;20053;-49
2022/12/19 10:14:32;;;;;;;0.30;0.20;;;22.80;47.20;;;;;;5046991;28;20080;-51
2022/12/19 10:17:06;;;;;;;0.95;0.40;;;22.80;47.20;;;;;;5047132;28;20143;-51
2022/12/19 10:19:42;;;;;;;0.25;0.20;;;22.80;47.20;;;;;;5047447;28;20141;-49
2022/12/19 10:22:21;;;;;;;0.63;0.17;;;22.80;47.20;;;;;;5047255;28;20060;-51
2022/12/19 10:25:05;;;;;;;0.32;0.32;;;22.80;47.10;;;;;;5047328;28;20083;-52
2022/12/19 10:27:41;;;;;;;1.25;0.10;;;22.80;47.10;;;;;;5046786;28;20049;-50
2022/12/19 10:30:14;;;;;;;0.22;0.17;;;22.80;47.10;;;;;;5045993;28;20056;-50
2022/12/19 10:32:56;;;;;;;0.57;0.10;;;22.80;47.10;;;;;;5043084;28;20088;-53
2022/12/19 10:35:29;;;;;;;3.92;0.20;;;22.80;47.10;;;;;;5030706;28;20405;-52
2022/12/19 10:38:16;;;;;;;0.55;0.20;;;22.80;47.00;;;;;;5046955;28;20065;-52
2022/12/19 10:40:49;;;;;;;1.77;0.40;;;22.80;46.90;;;;;;5047049;28;20057;-52
2022/12/19 10:43:26;;;;;;;0.13;0.10;;;22.80;46.90;;;;;;5046624;28;20039;-51
2022/12/19 10:45:59;;;;;;;1.60;0.40;;;22.80;46.90;;;;;;5045664;28;20458;-49
2022/12/19 10:48:27;;;;;;;0.50;0.20;;;22.80;46.80;;;;;;5047126;28;20107;-50
2022/12/19 10:50:54;;;;;;;0.68;0.20;;;22.80;46.70;;;;;;5041891;28;20094;-49
2022/12/19 10:53:27;;;;;;;1.45;0.40;;;22.80;46.70;;;;;;5027024;28;20099;-54
2022/12/19 10:55:56;;;;;;;1.20;0.40;;;22.80;46.70;;;;;;5029140;28;20053;-53
2022/12/19 10:58:26;;;;;;;2.33;0.20;;;22.80;46.60;;;;;;5046116;28;20036;-54
2022/12/19 11:01:11;;;;;;;0.20;0.10;;;22.80;46.50;;;;;;5044268;28;20068;-52
2022/12/19 11:03:41;;;;;;;0.60;0.10;;;22.80;46.50;;;;;;5043899;28;20037;-54
2022/12/19 11:06:43;;;;;;;0.65;0.20;;;22.80;46.00;;;;;;5043479;28;20045;-53
2022/12/19 11:09:23;;;;;;;0.43;0.20;;;22.70;45.50;;;;;;5046512;28;20040;-54
2022/12/19 11:11:58;;;;;;;1.48;0.20;;;22.70;45.20;;;;;;5044091;28;20120;-53
2022/12/19 11:14:28;;;;;;;1.40;0.22;;;22.60;45.00;;;;;;5046351;28;20040;-55
2022/12/19 11:16:56;;;;;;;1.27;0.17;;;22.50;45.00;;;;;;5045894;28;20090;-55
2022/12/19 11:19:29;;;;;;;1.85;0.50;;;22.40;44.90;;;;;;5043582;28;20095;-50
2022/12/19 11:22:00;;;;;;;1.27;0.30;;;22.40;44.90;;;;;;5043598;28;20045;-53
2022/12/19 11:24:35;;;;;;;0.88;0.20;;;22.30;44.90;;;;;;5046031;28;20094;-50
2022/12/19 11:27:02;;;;;;;3.38;0.45;;;22.10;44.80;;;;;;5046732;28;20138;-50
2022/12/19 11:29:43;;;;;;;0.60;0.22;;;22.10;45.40;;;;;;5048076;28;20040;-52
2022/12/19 11:32:25;;;;;;;1.75;0.13;;;22.00;44.80;;;;;;5045688;28;20037;-50
2022/12/19 11:35:01;;;;;;;1.60;0.10;;;21.90;44.80;;;;;;5045579;28;20041;-57
2022/12/19 11:37:37;;;;;;;2.90;0.28;;;21.80;44.80;;;;;;5048597;28;20047;-55
2022/12/19 11:40:10;;;;;;;0.63;0.15;;;21.70;44.90;;;;;;5050659;28;20073;-60
2022/12/19 11:42:47;;;;;;;1.15;0.45;;;21.60;45.10;;;;;;5052009;28;20057;-60
2022/12/19 11:45:20;;;;;;;1.55;0.22;;;21.60;45.40;;;;;;5069958;28;20091;-60
2022/12/19 11:47:53;;;;;;;7.65;0.20;;;21.50;45.30;;;;;;5068525;28;20052;-60
2022/12/19 11:50:25;;;;;;;1.92;0.10;;;21.40;45.30;;;;;;5048214;28;20048;-60
2022/12/19 11:52:58;;;;;;;2.70;0.20;;;21.40;45.30;;;;;;5033028;28;20481;-59
2022/12/19 11:55:28;;;;;;;2.67;0.20;;;21.30;45.30;;;;;;5030156;28;20516;-60
2022/12/19 11:57:55;;;;;;;0.52;0.40;;;21.20;45.20;;;;;;5030332;28;20149;-59
2022/12/19 12:00:25;;;;;;;0.52;0.45;;;21.10;45.20;;;;;;5047966;28;20099;-60
2022/12/19 12:03:24;;;;;;;0.20;0.10;;;21.10;45.20;;;;;;5049833;28;20124;-59
2022/12/19 12:05:54;;;;;;;0.20;0.20;;;21.00;45.20;;;;;;5047212;28;20051;-59
2022/12/19 12:08:59;;;;;;;1.00;0.25;;;21.00;44.80;;;;;;5049512;28;20237;-61
2022/12/19 12:11:36;;;;;;;4.13;0.50;;;20.90;45.10;;;;;;4987814;28;20068;-58
2022/12/19 12:14:32;;;;;;;0.40;0.15;;;20.80;45.20;;;;;;5005622;28;20049;-55
2022/12/19 12:17:14;;;;;;;2.10;0.57;;;20.80;45.20;;;;;;4990678;28;20466;-54
2022/12/19 12:19:58;;;;;;;1.60;0.20;;;20.70;45.40;;;;;;5007230;28;20045;-54
2022/12/19 12:22:50;;;;;;;4.15;0.65;;;20.70;45.50;;;;;;5007418;28;20559;-56
2022/12/19 12:25:37;;;;;;;1.85;0.20;;;20.60;45.60;;;;;;5005192;28;20141;-58
2022/12/19 12:28:21;;;;;;;3.10;0.10;;;20.60;45.70;;;;;;5007316;28;20423;-58
2022/12/19 12:30:56;;;;;;;1.95;0.13;;;20.50;45.80;;;;;;4987844;28;20057;-56
2022/12/19 12:33:33;;;;;;;0.47;0.10;;;20.50;45.90;;;;;;4987876;28;20049;-55
2022/12/19 12:36:04;;;;;;;1.05;0.10;;;20.50;45.90;;;;;;5007051;28;20132;-56
2022/12/19 12:38:46;;;;;;;1.75;0.40;;;20.40;46.00;;;;;;5008844;28;20053;-55
2022/12/19 12:42:02;;;;;;;1.58;0.20;;;20.40;46.00;;;;;;5002766;28;20082;-62
2022/12/19 12:44:13;;;;;;;1.65;0.15;;;20.40;46.10;;;;;;5024631;28;20049;-61
2022/12/19 12:46:44;;;;;;;0.20;0.10;;;20.30;46.10;;;;;;5065730;28;20056;-61
2022/12/19 12:49:34;;;;;;;0.47;0.30;;;20.30;46.10;;;;;;5051136;28;20094;-61
2022/12/19 12:52:04;;;;;;;0.57;0.20;;;20.40;46.10;;;;;;5046916;28;20528;-61
2022/12/19 12:54:35;;;;;;;0.98;0.10;;;20.30;46.30;;;;;;5050357;28;20135;-61
2022/12/19 12:57:02;;;;;;;0.57;0.10;;;20.30;46.20;;;;;;5049100;28;20114;-61
2022/12/19 12:59:31;;;;;;;1.27;0.65;;;20.30;46.20;;;;;;5048986;28;20390;-61
2022/12/19 13:02:00;;;;;;;1.30;0.10;;;20.30;46.20;;;;;;5047016;28;20623;-60
2022/12/19 13:04:32;;;;;;;1.67;0.63;;;20.30;46.20;;;;;;5028863;28;20132;-61
2022/12/19 13:07:14;;;;;;;0.50;0.40;;;20.30;46.20;;;;;;5042703;28;20057;-60
2022/12/19 13:09:42;;;;;;;0.40;0.20;;;20.30;46.10;;;;;;5048870;28;20045;-62
2022/12/19 13:15:41;;;;;;;0.25;0.15;;;20.40;46.20;;;;;;5028646;28;20125;-61